createdAt,value
2022-10-05T00:01:26.847Z,3.10
2022-10-05T00:03:59.158Z,3.27
2022-10-05T00:06:28.499Z,3.23
2022-10-05T00:08:55.262Z,2.80
2022-10-05T00:11:21.901Z,3.10
2022-10-05T00:13:48.543Z,3.50
2022-10-05T00:16:16.904Z,3.13
2022-10-05T00:18:45.973Z,3.37
2022-10-05T00:21:18.583Z,3.07
2022-10-05T00:23:45.104Z,3.10
2022-10-05T00:26:14.084Z,2.83
2022-10-05T00:28:41.087Z,2.90
2022-10-05T00:31:14.222Z,3.07
2022-10-05T00:33:40.740Z,2.80
2022-10-05T00:36:07.546Z,3.10
2022-10-05T00:38:34.063Z,3.10
2022-10-05T00:41:03.569Z,2.87
2022-10-05T00:43:30.280Z,2.43
2022-10-05T00:46:09.657Z,3.10
2022-10-05T00:48:39.153Z,3.00
2022-10-05T00:51:17.004Z,3.30
2022-10-05T00:53:48.346Z,3.30
2022-10-05T00:56:25.758Z,3.10
2022-10-05T00:58:52.448Z,3.03
2022-10-05T01:01:33.381Z,2.83
2022-10-05T01:04:20.571Z,3.17
2022-10-05T01:07:01.661Z,3.13
2022-10-05T01:09:47.632Z,3.10
2022-10-05T01:12:23.093Z,3.03
2022-10-05T01:15:02.320Z,2.80
2022-10-05T01:17:36.060Z,3.00
2022-10-05T01:20:11.739Z,3.40
2022-10-05T01:22:56.509Z,2.80
2022-10-05T01:25:35.046Z,2.97
2022-10-05T01:28:01.745Z,3.07
2022-10-05T01:30:31.440Z,3.37
2022-10-05T01:32:58.367Z,2.80
2022-10-05T01:35:27.417Z,2.80
2022-10-05T01:38:06.276Z,2.97
2022-10-05T01:40:50.659Z,2.50
2022-10-05T01:43:35.942Z,3.13
2022-10-05T01:46:18.505Z,3.00
2022-10-05T01:48:54.087Z,3.13
2022-10-05T01:51:39.310Z,3.00
2022-10-05T01:54:24.740Z,3.40
2022-10-05T01:57:09.719Z,2.93
2022-10-05T02:00:07.618Z,2.60
2022-10-05T02:02:57.156Z,2.87
2022-10-05T02:05:26.291Z,2.70
2022-10-05T02:07:55.811Z,3.27
2022-10-05T02:10:27.428Z,2.90
2022-10-05T02:12:57.359Z,3.10
2022-10-05T02:15:27.116Z,2.70
2022-10-05T02:17:57.587Z,3.37
2022-10-05T02:20:26.030Z,3.10
2022-10-05T02:22:58.166Z,3.00
2022-10-05T02:25:29.922Z,3.03
2022-10-05T02:28:23.698Z,2.87
2022-10-05T02:31:11.283Z,2.77
2022-10-05T02:33:37.948Z,3.30
2022-10-05T02:36:16.004Z,2.70
2022-10-05T02:38:49.075Z,3.20
2022-10-05T02:41:35.691Z,3.30
2022-10-05T02:44:14.757Z,3.00
2022-10-05T02:46:56.055Z,2.80
2022-10-05T02:49:23.665Z,3.23
2022-10-05T02:52:02.243Z,2.83
2022-10-05T02:54:47.708Z,2.80
2022-10-05T02:57:19.874Z,2.60
2022-10-05T03:00:18.862Z,2.73
2022-10-05T03:02:46.793Z,2.87
2022-10-05T03:05:30.826Z,3.10
2022-10-05T03:08:07.537Z,3.40
2022-10-05T03:10:39.746Z,2.50
2022-10-05T03:13:11.031Z,3.10
2022-10-05T03:15:48.938Z,2.83
2022-10-05T03:18:21.889Z,3.20
2022-10-05T03:20:55.145Z,2.73
2022-10-05T03:23:25.047Z,2.97
2022-10-05T03:25:58.604Z,3.00
2022-10-05T03:28:38.560Z,3.23
2022-10-05T03:31:10.551Z,2.93
2022-10-05T03:33:37.259Z,3.47
2022-10-05T03:36:13.011Z,2.80
2022-10-05T03:39:05.581Z,3.00
2022-10-05T03:41:35.534Z,2.77
2022-10-05T03:44:06.776Z,2.80
2022-10-05T03:46:45.735Z,3.00
2022-10-05T03:49:15.468Z,2.97
2022-10-05T03:51:55.697Z,3.30
2022-10-05T03:54:24.519Z,3.07
2022-10-05T03:57:11.508Z,3.30
2022-10-05T03:59:42.071Z,2.67
2022-10-05T04:02:34.970Z,2.97
2022-10-05T04:05:11.010Z,3.03
2022-10-05T04:07:43.665Z,3.00
2022-10-05T04:10:14.668Z,2.73
2022-10-05T04:12:42.826Z,3.20
2022-10-05T04:15:18.836Z,3.00
2022-10-05T04:17:47.707Z,2.80
2022-10-05T04:20:20.259Z,3.03
2022-10-05T04:22:49.794Z,2.90
2022-10-05T04:25:28.657Z,3.37
2022-10-05T04:28:15.392Z,3.30
2022-10-05T04:30:44.876Z,3.20
2022-10-05T04:33:16.155Z,3.13
2022-10-05T04:35:54.045Z,3.03
2022-10-05T04:38:33.491Z,3.03
2022-10-05T04:41:09.315Z,3.27
2022-10-05T04:43:39.015Z,3.27
2022-10-05T04:46:17.820Z,3.10
2022-10-05T04:48:51.793Z,3.07
2022-10-05T04:51:34.283Z,3.40
2022-10-05T04:54:15.816Z,2.90
2022-10-05T04:56:46.001Z,2.80
2022-10-05T04:59:15.510Z,2.93
2022-10-05T05:01:42.099Z,3.03
2022-10-05T05:04:35.012Z,3.20
2022-10-05T05:07:18.663Z,3.07
2022-10-05T05:10:00.676Z,2.97
2022-10-05T05:12:49.473Z,3.47
2022-10-05T05:15:16.089Z,3.43
2022-10-05T05:17:45.900Z,3.40
2022-10-05T05:20:20.389Z,3.10
2022-10-05T05:22:46.872Z,3.40
2022-10-05T05:25:52.265Z,3.17
2022-10-05T05:28:18.951Z,3.53
2022-10-05T05:30:48.460Z,3.30
2022-10-05T05:33:33.481Z,3.50
2022-10-05T05:36:22.979Z,3.30
2022-10-05T05:39:00.260Z,3.50
2022-10-05T05:41:30.601Z,3.50
2022-10-05T05:44:12.476Z,3.40
2022-10-05T05:47:03.461Z,3.20
2022-10-05T05:49:45.339Z,3.40
2022-10-05T05:52:24.279Z,3.40
2022-10-05T05:54:59.584Z,3.70
2022-10-05T05:57:32.502Z,3.30
2022-10-05T06:00:08.582Z,3.67
2022-10-05T06:02:52.945Z,3.47
2022-10-05T06:05:28.772Z,3.50
2022-10-05T06:07:57.957Z,3.60
2022-10-05T06:10:38.572Z,3.50
2022-10-05T06:13:14.586Z,3.57
2022-10-05T06:15:44.383Z,3.60
2022-10-05T06:18:16.731Z,3.90
2022-10-05T06:20:53.302Z,3.40
2022-10-05T06:23:38.488Z,3.43
2022-10-05T06:26:11.571Z,4.23
2022-10-05T06:28:41.229Z,3.70
2022-10-05T06:31:29.655Z,3.70
2022-10-05T06:34:00.910Z,3.33
2022-10-05T06:36:39.724Z,4.07
2022-10-05T06:39:12.518Z,4.10
2022-10-05T06:41:54.572Z,4.17
2022-10-05T06:44:58.744Z,4.13
2022-10-05T06:47:32.516Z,4.13
2022-10-05T06:50:14.996Z,4.53
2022-10-05T06:52:56.219Z,4.27
2022-10-05T06:55:34.407Z,4.00
2022-10-05T06:58:10.318Z,4.83
2022-10-05T07:00:44.564Z,4.40
2022-10-05T07:03:30.030Z,3.50
2022-10-05T07:05:59.693Z,3.70
2022-10-05T07:08:31.406Z,3.80
2022-10-05T07:10:58.016Z,3.60
2022-10-05T07:13:28.715Z,3.40
2022-10-05T07:16:04.566Z,3.73
2022-10-05T07:18:32.248Z,3.30
2022-10-05T07:21:06.937Z,3.30
2022-10-05T07:23:46.291Z,3.80
2022-10-05T07:26:20.676Z,3.27
2022-10-05T07:28:48.623Z,3.27
2022-10-05T07:31:27.039Z,3.33
2022-10-05T07:34:07.283Z,3.40
2022-10-05T07:36:54.984Z,3.87
2022-10-05T07:39:55.340Z,3.13
2022-10-05T07:42:33.130Z,3.70
2022-10-05T07:45:24.605Z,3.27
2022-10-05T07:47:51.138Z,3.50
2022-10-05T07:50:21.374Z,3.40
2022-10-05T07:53:08.127Z,3.80
2022-10-05T07:55:36.964Z,3.40
2022-10-05T07:58:13.508Z,3.47
2022-10-05T08:00:53.248Z,3.53
2022-10-05T08:03:23.229Z,2.93
2022-10-05T08:05:49.876Z,3.70
2022-10-05T08:08:31.398Z,3.10
2022-10-05T08:11:00.690Z,3.70
2022-10-05T08:13:33.257Z,3.13
2022-10-05T08:16:04.766Z,3.37
2022-10-05T08:18:42.575Z,3.30
2022-10-05T08:21:13.431Z,3.40
2022-10-05T08:23:39.831Z,3.23
2022-10-05T08:26:15.427Z,3.70
2022-10-05T08:28:47.197Z,3.10
2022-10-05T08:31:18.995Z,3.20
2022-10-05T08:33:50.769Z,2.90
2022-10-05T08:36:19.281Z,3.00
2022-10-05T08:38:45.688Z,3.03
2022-10-05T08:41:27.462Z,2.83
2022-10-05T08:44:12.474Z,3.03
2022-10-05T08:46:57.844Z,2.77
2022-10-05T08:49:42.753Z,3.10
2022-10-05T08:52:12.326Z,3.03
2022-10-05T08:54:57.465Z,2.60
2022-10-05T08:57:26.672Z,3.03
2022-10-05T09:00:05.053Z,2.50
2022-10-05T09:02:31.480Z,2.47
2022-10-05T09:04:58.122Z,2.77
2022-10-05T09:07:43.491Z,2.67
2022-10-05T09:10:19.382Z,2.40
2022-10-05T09:12:58.568Z,2.70
2022-10-05T09:15:26.416Z,2.50
2022-10-05T09:18:06.589Z,2.50
2022-10-05T09:20:55.543Z,2.50
2022-10-05T09:23:33.905Z,2.50
2022-10-05T09:26:20.579Z,2.63
2022-10-05T09:29:05.703Z,2.37
2022-10-05T09:31:35.124Z,3.10
2022-10-05T09:34:04.389Z,2.80
2022-10-05T09:36:34.086Z,2.40
2022-10-05T09:39:19.447Z,2.60
2022-10-05T09:42:04.207Z,2.50
2022-10-05T09:44:30.623Z,2.33
2022-10-05T09:47:15.899Z,2.33
2022-10-05T09:49:45.067Z,2.40
2022-10-05T09:52:19.272Z,2.70
2022-10-05T09:55:06.818Z,2.47
2022-10-05T09:57:53.213Z,2.40
2022-10-05T10:00:23.600Z,2.70
2022-10-05T10:03:08.954Z,2.53
2022-10-05T10:05:41.186Z,2.43
2022-10-05T10:08:10.937Z,2.53
2022-10-05T10:11:15.943Z,2.50
2022-10-05T10:13:55.758Z,2.20
2022-10-05T10:16:40.663Z,2.77
2022-10-05T10:19:21.365Z,2.57
2022-10-05T10:21:53.901Z,2.20
2022-10-05T10:24:26.303Z,2.90
2022-10-05T10:27:08.289Z,2.70
2022-10-05T10:29:46.678Z,2.40
2022-10-05T10:32:18.992Z,2.70
2022-10-05T10:34:51.426Z,2.27
2022-10-05T10:37:36.753Z,2.50
2022-10-05T10:40:23.312Z,2.30
2022-10-05T10:42:49.907Z,2.40
2022-10-05T10:45:16.513Z,2.60
2022-10-05T10:47:48.587Z,2.20
2022-10-05T10:50:33.582Z,2.30
2022-10-05T10:53:23.873Z,2.50
2022-10-05T10:56:11.631Z,2.33
2022-10-05T10:58:56.425Z,2.30
2022-10-05T11:01:29.765Z,2.70
2022-10-05T11:04:15.897Z,2.40
2022-10-05T11:06:54.655Z,2.27
2022-10-05T11:09:36.333Z,2.20
2022-10-05T11:12:02.932Z,2.33
2022-10-05T11:14:49.757Z,2.23
2022-10-05T11:17:45.140Z,2.20
2022-10-05T11:20:30.436Z,2.37
2022-10-05T11:23:11.943Z,1.93
2022-10-05T11:25:44.805Z,2.10
2022-10-05T11:28:30.114Z,2.20
2022-10-05T11:31:24.156Z,2.33
2022-10-05T11:33:59.761Z,2.47
2022-10-05T11:36:44.824Z,2.20
2022-10-05T11:39:22.644Z,2.07
2022-10-05T11:41:55.237Z,2.10
2022-10-05T11:44:40.326Z,2.07
2022-10-05T11:47:09.813Z,1.97
2022-10-05T11:49:53.894Z,1.80
2022-10-05T11:52:26.075Z,2.00
2022-10-05T11:55:11.991Z,2.00
2022-10-05T11:57:50.320Z,1.90
2022-10-05T12:00:22.903Z,1.97
2022-10-05T12:02:55.500Z,1.90
2022-10-05T12:05:32.415Z,1.80
2022-10-05T12:08:05.736Z,1.80
2022-10-05T12:10:36.665Z,1.80
2022-10-05T12:13:19.382Z,1.77
2022-10-05T12:15:47.242Z,2.13
2022-10-05T12:18:18.412Z,2.00
2022-10-05T12:20:59.166Z,2.10
2022-10-05T12:23:37.435Z,2.10
2022-10-05T12:26:07.064Z,2.40
2022-10-05T12:28:46.216Z,2.00
2022-10-05T12:31:31.277Z,1.97
2022-10-05T12:34:23.957Z,2.20
2022-10-05T12:37:05.679Z,2.67
2022-10-05T12:39:32.297Z,2.30
2022-10-05T12:42:21.878Z,2.37
2022-10-05T12:44:55.210Z,2.50
2022-10-05T12:47:25.560Z,2.90
2022-10-05T12:50:10.904Z,2.47
2022-10-05T12:52:43.384Z,2.60
2022-10-05T12:55:12.593Z,2.80
2022-10-05T12:57:57.708Z,2.40
2022-10-05T13:00:24.342Z,2.67
2022-10-05T13:02:55.633Z,2.63
2022-10-05T13:05:31.185Z,2.40
2022-10-05T13:08:06.474Z,2.30
2022-10-05T13:10:58.874Z,2.70
2022-10-05T13:13:40.344Z,2.63
2022-10-05T13:16:16.683Z,2.30
2022-10-05T13:19:02.268Z,2.40
2022-10-05T13:21:31.410Z,2.30
2022-10-05T13:24:24.736Z,2.53
2022-10-05T13:26:53.661Z,2.67
2022-10-05T13:29:20.130Z,2.70
2022-10-05T13:31:49.369Z,2.60
2022-10-05T13:34:25.314Z,2.50
2022-10-05T13:37:12.096Z,2.80
2022-10-05T13:39:49.635Z,2.97
2022-10-05T13:42:19.261Z,11.30
2022-10-05T13:45:04.565Z,4.70
2022-10-05T13:47:52.489Z,3.43
2022-10-05T13:50:26.594Z,4.30
2022-10-05T13:53:13.621Z,3.20
2022-10-05T13:55:43.137Z,2.80
2022-10-05T13:58:28.639Z,3.37
2022-10-05T14:00:57.819Z,3.00
2022-10-05T14:03:37.502Z,2.90
2022-10-05T14:06:30.875Z,2.50
2022-10-05T14:08:58.154Z,2.90
2022-10-05T14:11:31.343Z,2.90
2022-10-05T14:14:10.237Z,2.93
2022-10-05T14:16:48.254Z,2.60
2022-10-05T14:19:23.932Z,2.60
2022-10-05T14:22:01.264Z,3.20
2022-10-05T14:24:51.109Z,3.50
2022-10-05T14:27:20.972Z,3.00
2022-10-05T14:29:54.426Z,3.10
2022-10-05T14:32:24.978Z,3.17
2022-10-05T14:35:07.391Z,3.10
2022-10-05T14:37:43.421Z,3.17
2022-10-05T14:40:25.236Z,3.50
2022-10-05T14:42:52.204Z,3.07
2022-10-05T14:45:20.510Z,3.10
2022-10-05T14:48:00.174Z,3.17
2022-10-05T14:50:29.765Z,3.27
2022-10-05T14:53:11.484Z,3.10
2022-10-05T14:55:48.317Z,3.97
2022-10-05T14:58:23.733Z,3.60
2022-10-05T15:00:57.008Z,3.23
2022-10-05T15:03:43.844Z,3.27
2022-10-05T15:06:15.929Z,3.60
2022-10-05T15:08:45.278Z,12.57
2022-10-05T15:11:14.721Z,5.50
2022-10-05T15:13:43.519Z,5.53
2022-10-05T15:16:31.327Z,4.70
2022-10-05T15:19:03.280Z,3.90
2022-10-05T15:21:34.640Z,3.07
2022-10-05T15:24:04.970Z,3.63
2022-10-05T15:26:32.203Z,3.50
2022-10-05T15:29:04.451Z,3.87
2022-10-05T15:31:30.901Z,3.90
2022-10-05T15:34:08.020Z,4.17
2022-10-05T15:36:47.904Z,3.77
2022-10-05T15:39:17.298Z,2.97
2022-10-05T15:41:49.947Z,3.40
2022-10-05T15:44:27.135Z,3.40
2022-10-05T15:46:58.270Z,3.70
2022-10-05T15:49:43.666Z,3.77
2022-10-05T15:52:23.955Z,3.43
2022-10-05T15:55:02.434Z,3.63
2022-10-05T15:57:47.911Z,4.17
2022-10-05T16:00:16.147Z,3.70
2022-10-05T16:02:42.656Z,3.70
2022-10-05T16:05:19.908Z,3.40
2022-10-05T16:08:08.124Z,4.40
2022-10-05T16:10:36.324Z,3.70
2022-10-05T16:13:02.775Z,3.80
2022-10-05T16:15:46.424Z,3.67
2022-10-05T16:18:22.035Z,4.30
2022-10-05T16:21:09.539Z,4.10
2022-10-05T16:23:44.146Z,5.47
2022-10-05T16:26:34.937Z,4.80
2022-10-05T16:29:13.294Z,4.93
2022-10-05T16:31:49.146Z,4.60
2022-10-05T16:34:34.352Z,4.10
2022-10-05T16:37:06.844Z,7.00
2022-10-05T16:39:44.885Z,8.60
2022-10-05T16:42:20.059Z,6.27
2022-10-05T16:45:06.898Z,5.27
2022-10-05T16:47:45.238Z,4.07
2022-10-05T16:50:11.925Z,4.27
2022-10-05T16:52:40.096Z,5.73
2022-10-05T16:55:12.100Z,5.43
2022-10-05T16:57:44.861Z,4.67
2022-10-05T17:00:21.989Z,5.20
2022-10-05T17:03:04.559Z,5.20
2022-10-05T17:05:47.128Z,5.20
2022-10-05T17:08:26.711Z,4.00
2022-10-05T17:11:02.371Z,4.37
2022-10-05T17:13:31.628Z,4.57
2022-10-05T17:16:00.775Z,4.60
2022-10-05T17:18:39.356Z,5.80
2022-10-05T17:21:12.552Z,5.30
2022-10-05T17:23:38.978Z,4.70
2022-10-05T17:26:28.242Z,4.93
2022-10-05T17:28:59.399Z,4.30
2022-10-05T17:31:26.456Z,4.27
2022-10-05T17:33:59.103Z,4.90
2022-10-05T17:36:57.823Z,4.50
2022-10-05T17:39:44.522Z,4.30
2022-10-05T17:42:26.632Z,4.50
2022-10-05T17:45:00.024Z,6.50
2022-10-05T17:47:47.530Z,6.83
2022-10-05T17:50:32.610Z,8.70
2022-10-05T17:53:36.636Z,4.30
2022-10-05T17:56:04.295Z,5.33
2022-10-05T17:58:30.714Z,3.87
2022-10-05T18:00:57.091Z,4.10
2022-10-05T18:03:37.838Z,4.00
2022-10-05T18:06:24.292Z,4.03
2022-10-05T18:09:10.735Z,4.03
2022-10-05T18:11:41.755Z,4.30
2022-10-05T18:14:26.516Z,4.70
2022-10-05T18:17:12.229Z,4.10
2022-10-05T18:19:39.591Z,4.23
2022-10-05T18:22:17.960Z,4.00
2022-10-05T18:24:44.408Z,3.87
2022-10-05T18:27:18.582Z,3.87
2022-10-05T18:30:08.733Z,3.83
2022-10-05T18:32:44.244Z,3.97
2022-10-05T18:35:49.354Z,4.03
2022-10-05T18:38:36.440Z,3.90
2022-10-05T18:41:11.926Z,4.10
2022-10-05T18:43:38.422Z,4.30
2022-10-05T18:46:10.840Z,3.83
2022-10-05T18:48:55.852Z,4.00
2022-10-05T18:51:28.455Z,4.10
2022-10-05T18:53:57.977Z,3.60
2022-10-05T18:56:50.952Z,4.13
2022-10-05T18:59:36.262Z,4.17
2022-10-05T19:02:22.134Z,6.27
2022-10-05T19:05:02.533Z,15.70
2022-10-05T19:07:49.384Z,5.97
2022-10-05T19:10:28.334Z,10.60
2022-10-05T19:13:00.885Z,8.70
2022-10-05T19:15:34.109Z,7.10
2022-10-05T19:18:06.448Z,4.10
2022-10-05T19:20:35.586Z,4.70
2022-10-05T19:23:02.593Z,4.50
2022-10-05T19:25:48.239Z,5.37
2022-10-05T19:28:20.600Z,5.30
2022-10-05T19:30:53.658Z,4.47
2022-10-05T19:33:38.876Z,4.27
2022-10-05T19:36:08.539Z,4.70
2022-10-05T19:38:41.413Z,4.53
2022-10-05T19:41:10.599Z,3.77
2022-10-05T19:43:50.611Z,4.20
2022-10-05T19:46:25.480Z,4.20
2022-10-05T19:48:53.134Z,4.30
2022-10-05T19:51:31.568Z,4.03
2022-10-05T19:54:02.609Z,4.23
2022-10-05T19:56:32.970Z,4.40
2022-10-05T19:59:10.540Z,4.30
2022-10-05T20:01:38.930Z,4.83
2022-10-05T20:04:05.843Z,4.53
2022-10-05T20:06:33.008Z,4.17
2022-10-05T20:09:00.435Z,4.73
2022-10-05T20:11:31.512Z,3.90
2022-10-05T20:13:59.691Z,4.10
2022-10-05T20:16:44.845Z,4.40
2022-10-05T20:19:49.183Z,4.47
2022-10-05T20:22:34.453Z,3.90
2022-10-05T20:25:08.437Z,4.10
2022-10-05T20:27:44.202Z,4.50
2022-10-05T20:30:18.479Z,4.37
2022-10-05T20:32:51.068Z,4.03
2022-10-05T20:35:18.656Z,4.27
2022-10-05T20:37:45.140Z,4.33
2022-10-05T20:40:11.742Z,4.43
2022-10-05T20:42:38.206Z,4.50
2022-10-05T20:45:06.340Z,4.40
2022-10-05T20:47:33.692Z,4.70
2022-10-05T20:50:02.279Z,4.50
2022-10-05T20:52:29.380Z,4.17
2022-10-05T20:54:58.171Z,4.23
2022-10-05T20:57:25.107Z,3.90
2022-10-05T20:59:51.575Z,4.40
2022-10-05T21:02:20.867Z,3.67
2022-10-05T21:04:50.498Z,4.00
2022-10-05T21:07:18.444Z,4.70
2022-10-05T21:09:46.669Z,3.90
2022-10-05T21:12:13.731Z,4.13
2022-10-05T21:14:40.639Z,4.40
2022-10-05T21:17:07.076Z,4.80
2022-10-05T21:19:38.235Z,6.00
2022-10-05T21:22:09.135Z,4.70
2022-10-05T21:24:36.673Z,4.40
2022-10-05T21:27:03.257Z,4.10
2022-10-05T21:29:30.232Z,4.20
2022-10-05T21:31:57.168Z,4.50
2022-10-05T21:34:23.623Z,4.30
2022-10-05T21:36:50.058Z,4.50
2022-10-05T21:39:16.979Z,4.60
2022-10-05T21:41:43.416Z,4.40
2022-10-05T21:44:09.859Z,4.60
2022-10-05T21:46:37.018Z,4.63
2022-10-05T21:49:03.692Z,4.00
2022-10-05T21:51:30.127Z,4.57
2022-10-05T21:54:03.939Z,4.00
2022-10-05T21:56:32.172Z,3.73
2022-10-05T21:58:59.272Z,3.80
2022-10-05T22:01:25.983Z,4.27
2022-10-05T22:03:52.461Z,4.20
2022-10-05T22:06:19.009Z,3.90
2022-10-05T22:08:45.459Z,4.20
2022-10-05T22:11:16.668Z,7.43
2022-10-05T22:13:44.272Z,6.53
2022-10-05T22:16:11.789Z,6.20
2022-10-05T22:18:38.362Z,3.97
2022-10-05T22:21:06.025Z,4.97
2022-10-05T22:23:33.963Z,4.37
2022-10-05T22:26:00.634Z,5.00
2022-10-05T22:28:27.409Z,4.70
2022-10-05T22:30:54.332Z,5.17
2022-10-05T22:33:20.758Z,5.80
2022-10-05T22:35:47.216Z,5.80
2022-10-05T22:38:13.792Z,5.07
2022-10-05T22:40:40.228Z,5.43
2022-10-05T22:43:06.700Z,4.57
2022-10-05T22:45:33.359Z,4.03
2022-10-05T22:47:59.849Z,5.13
2022-10-05T22:50:26.286Z,4.70
2022-10-05T22:52:52.850Z,4.53
2022-10-05T22:55:19.327Z,4.70
2022-10-05T22:57:45.864Z,4.40
2022-10-05T23:00:12.480Z,7.90
2022-10-05T23:02:39.723Z,5.50
2022-10-05T23:05:06.585Z,4.87
2022-10-05T23:07:40.350Z,4.33
2022-10-05T23:10:07.612Z,4.47
2022-10-05T23:12:36.687Z,4.57
2022-10-05T23:15:03.758Z,4.33
2022-10-05T23:17:30.944Z,4.00
2022-10-05T23:19:57.917Z,4.20
2022-10-05T23:22:25.327Z,3.87
2022-10-05T23:24:52.289Z,3.60
2022-10-05T23:27:19.419Z,3.43
2022-10-05T23:29:46.138Z,3.40
2022-10-05T23:32:12.573Z,3.83
2022-10-05T23:34:39.061Z,4.20
2022-10-05T23:37:05.853Z,3.70
2022-10-05T23:39:32.299Z,3.20
2022-10-05T23:42:00.222Z,3.63
2022-10-05T23:44:26.647Z,3.70
2022-10-05T23:46:53.140Z,3.50
2022-10-05T23:49:19.566Z,3.60
2022-10-05T23:51:46.041Z,3.70
2022-10-05T23:54:12.475Z,3.40
2022-10-05T23:56:38.910Z,3.30
2022-10-05T23:59:05.324Z,3.50
